createdAt,value
2023-03-29T00:02:02.244Z,101533.19
2023-03-29T00:04:29.079Z,101538.28
2023-03-29T00:06:55.858Z,101535.75
2023-03-29T00:09:23.267Z,101528.19
2023-03-29T00:11:49.825Z,101532.53
2023-03-29T00:14:16.519Z,101535.91
2023-03-29T00:16:44.873Z,101531.75
2023-03-29T00:19:11.617Z,101530.19
2023-03-29T00:21:38.195Z,101537.09
2023-03-29T00:24:04.974Z,101533.84
2023-03-29T00:26:31.515Z,101531.34
2023-03-29T00:28:58.054Z,101529.81
2023-03-29T00:31:24.714Z,101529.72
2023-03-29T00:33:51.355Z,101533.09
2023-03-29T00:36:18.086Z,101528.88
2023-03-29T00:38:44.653Z,101521.25
2023-03-29T00:41:11.837Z,101524.53
2023-03-29T00:43:56.958Z,101525.28
2023-03-29T00:46:25.951Z,101520.19
2023-03-29T00:48:57.829Z,101524.44
2023-03-29T00:51:29.220Z,101514.44
2023-03-29T00:54:00.030Z,101512.00
2023-03-29T00:56:31.396Z,101506.06
2023-03-29T00:59:09.514Z,101503.53
2023-03-29T01:01:54.403Z,101499.34
2023-03-29T01:04:32.790Z,101501.72
2023-03-29T01:07:13.586Z,101497.47
2023-03-29T01:09:45.691Z,101488.06
2023-03-29T01:12:17.303Z,101488.16
2023-03-29T01:15:21.193Z,101484.81
2023-03-29T01:17:50.942Z,101484.97
2023-03-29T01:20:26.919Z,101476.00
2023-03-29T01:23:27.469Z,101476.97
2023-03-29T01:25:54.043Z,101484.78
2023-03-29T01:28:29.788Z,101475.69
2023-03-29T01:31:04.280Z,101480.06
2023-03-29T01:33:38.770Z,101483.53
2023-03-29T01:36:09.651Z,101481.59
2023-03-29T01:38:59.593Z,101477.25
2023-03-29T01:41:51.313Z,101473.69
2023-03-29T01:44:35.748Z,101477.97
2023-03-29T01:47:25.342Z,101478.97
2023-03-29T01:50:12.309Z,101474.84
2023-03-29T01:52:48.790Z,101471.50
2023-03-29T01:55:20.811Z,101470.69
2023-03-29T01:57:49.901Z,101464.09
2023-03-29T02:00:21.224Z,101461.69
2023-03-29T02:02:50.189Z,101466.00
2023-03-29T02:05:16.982Z,101464.25
2023-03-29T02:07:47.517Z,101462.53
2023-03-29T02:10:16.410Z,101458.41
2023-03-29T02:12:43.287Z,101460.25
2023-03-29T02:15:15.466Z,101453.50
2023-03-29T02:17:43.641Z,101457.78
2023-03-29T02:20:22.735Z,101449.44
2023-03-29T02:23:14.424Z,101450.22
2023-03-29T02:25:43.200Z,101451.31
2023-03-29T02:28:09.857Z,101444.59
2023-03-29T02:31:03.168Z,101438.59
2023-03-29T02:33:53.100Z,101442.88
2023-03-29T02:36:28.700Z,101438.69
2023-03-29T02:38:56.444Z,101433.75
2023-03-29T02:41:25.531Z,101436.31
2023-03-29T02:43:53.715Z,101430.56
2023-03-29T02:46:21.045Z,101430.56
2023-03-29T02:48:50.295Z,101430.56
2023-03-29T02:51:28.773Z,101426.13
2023-03-29T02:54:06.707Z,101426.97
2023-03-29T02:56:55.245Z,101415.25
2023-03-29T02:59:25.138Z,101418.34
2023-03-29T03:01:54.992Z,101412.81
2023-03-29T03:04:21.583Z,101415.09
2023-03-29T03:06:48.453Z,101411.16
2023-03-29T03:09:15.690Z,101411.63
2023-03-29T03:11:42.347Z,101413.34
2023-03-29T03:14:08.889Z,101413.63
2023-03-29T03:16:36.223Z,101410.44
2023-03-29T03:19:03.853Z,101400.47
2023-03-29T03:21:30.902Z,101400.63
2023-03-29T03:23:57.645Z,101400.72
2023-03-29T03:26:29.929Z,101395.44
2023-03-29T03:28:57.302Z,101402.94
2023-03-29T03:31:24.241Z,101401.06
2023-03-29T03:33:51.124Z,101401.00
2023-03-29T03:36:17.670Z,101405.72
2023-03-29T03:38:45.093Z,101401.72
2023-03-29T03:41:11.745Z,101396.91
2023-03-29T03:43:38.531Z,101390.56
2023-03-29T03:46:05.461Z,101392.72
2023-03-29T03:48:32.412Z,101398.72
2023-03-29T03:50:59.397Z,101396.97
2023-03-29T03:53:28.474Z,101399.53
2023-03-29T03:55:58.631Z,101401.97
2023-03-29T03:58:26.030Z,101399.63
2023-03-29T04:00:52.627Z,101402.56
2023-03-29T04:03:19.427Z,101399.53
2023-03-29T04:05:47.111Z,101395.72
2023-03-29T04:08:14.876Z,101392.06
2023-03-29T04:10:41.704Z,101387.06
2023-03-29T04:13:08.392Z,101393.91
2023-03-29T04:15:38.419Z,101397.16
2023-03-29T04:18:07.262Z,101397.06
2023-03-29T04:20:34.600Z,101381.69
2023-03-29T04:23:02.003Z,101390.34
2023-03-29T04:25:28.901Z,101388.16
2023-03-29T04:27:56.104Z,101386.63
2023-03-29T04:30:22.684Z,101382.97
2023-03-29T04:32:49.411Z,101385.97
2023-03-29T04:35:16.135Z,101382.59
2023-03-29T04:37:42.752Z,101379.28
2023-03-29T04:40:10.051Z,101377.81
2023-03-29T04:42:37.717Z,101374.97
2023-03-29T04:45:07.212Z,101369.69
2023-03-29T04:47:36.311Z,101371.03
2023-03-29T04:50:03.851Z,101369.09
2023-03-29T04:52:33.120Z,101361.25
2023-03-29T04:55:01.468Z,101360.47
2023-03-29T04:57:29.300Z,101356.06
2023-03-29T04:59:56.592Z,101362.50
2023-03-29T05:02:24.435Z,101350.78
2023-03-29T05:04:51.245Z,101352.72
2023-03-29T05:07:19.109Z,101342.78
2023-03-29T05:09:45.888Z,101341.44
2023-03-29T05:12:12.446Z,101338.03
2023-03-29T05:14:38.984Z,101336.66
2023-03-29T05:17:06.487Z,101333.94
2023-03-29T05:19:33.657Z,101328.44
2023-03-29T05:22:00.806Z,101333.31
2023-03-29T05:24:27.462Z,101322.34
2023-03-29T05:26:54.004Z,101334.84
2023-03-29T05:29:20.733Z,101325.88
2023-03-29T05:31:47.349Z,101324.97
2023-03-29T05:34:14.011Z,101318.69
2023-03-29T05:36:40.566Z,101317.34
2023-03-29T05:39:07.371Z,101317.75
2023-03-29T05:41:34.650Z,101314.63
2023-03-29T05:44:01.612Z,101319.81
2023-03-29T05:46:28.632Z,101321.19
2023-03-29T05:48:55.166Z,101327.75
2023-03-29T05:51:24.431Z,101329.78
2023-03-29T05:53:51.761Z,101330.91
2023-03-29T05:56:19.050Z,101319.81
2023-03-29T05:58:49.502Z,101321.81
2023-03-29T06:01:18.521Z,101311.41
2023-03-29T06:03:49.135Z,101320.66
2023-03-29T06:06:16.679Z,101320.72
2023-03-29T06:08:44.427Z,101311.81
2023-03-29T06:11:13.401Z,101317.44
2023-03-29T06:13:40.108Z,101307.81
2023-03-29T06:16:07.187Z,101309.59
2023-03-29T06:18:34.317Z,101307.91
2023-03-29T06:21:04.223Z,101309.09
2023-03-29T06:23:31.352Z,101305.44
2023-03-29T06:26:00.179Z,101312.88
2023-03-29T06:28:26.901Z,101311.63
2023-03-29T06:30:56.473Z,101310.69
2023-03-29T06:33:24.966Z,101305.50
2023-03-29T06:35:51.745Z,101308.47
2023-03-29T06:38:19.455Z,101308.75
2023-03-29T06:40:46.434Z,101303.03
2023-03-29T06:43:13.023Z,101304.91
2023-03-29T06:45:40.488Z,101306.91
2023-03-29T06:48:08.153Z,101304.38
2023-03-29T06:50:35.411Z,101301.69
2023-03-29T06:53:02.901Z,101297.72
2023-03-29T06:55:29.556Z,101297.25
2023-03-29T06:57:56.183Z,101299.69
2023-03-29T07:00:35.743Z,101304.38
2023-03-29T07:03:10.581Z,101294.16
2023-03-29T07:05:40.737Z,101290.59
2023-03-29T07:08:07.894Z,101291.06
2023-03-29T07:10:43.371Z,101293.91
2023-03-29T07:13:13.356Z,101298.41
2023-03-29T07:15:41.898Z,101300.38
2023-03-29T07:18:10.225Z,101305.59
2023-03-29T07:20:38.858Z,101305.03
2023-03-29T07:23:09.145Z,101308.88
2023-03-29T07:25:37.479Z,101305.31
2023-03-29T07:28:04.664Z,101306.97
2023-03-29T07:30:32.690Z,101298.59
2023-03-29T07:32:59.734Z,101296.81
2023-03-29T07:35:26.935Z,101305.06
2023-03-29T07:37:55.529Z,101300.59
2023-03-29T07:40:23.848Z,101304.00
2023-03-29T07:42:56.530Z,101305.03
2023-03-29T07:45:26.294Z,101302.78
2023-03-29T07:47:58.207Z,101305.81
2023-03-29T07:50:26.133Z,101305.22
2023-03-29T07:52:52.898Z,101296.81
2023-03-29T07:55:19.653Z,101299.94
2023-03-29T07:57:48.812Z,101292.09
2023-03-29T08:00:16.361Z,101284.38
2023-03-29T08:02:44.880Z,101285.38
2023-03-29T08:05:13.678Z,101287.47
2023-03-29T08:07:42.481Z,101273.75
2023-03-29T08:10:11.523Z,101279.09
2023-03-29T08:12:38.235Z,101268.75
2023-03-29T08:15:05.724Z,101270.84
2023-03-29T08:17:33.458Z,101269.69
2023-03-29T08:20:00.144Z,101273.41
2023-03-29T08:22:27.073Z,101271.22
2023-03-29T08:24:53.713Z,101270.25
2023-03-29T08:27:20.572Z,101252.38
2023-03-29T08:29:47.250Z,101263.22
2023-03-29T08:32:14.173Z,101261.81
2023-03-29T08:34:41.066Z,101253.31
2023-03-29T08:37:08.567Z,101247.06
2023-03-29T08:39:37.795Z,101242.91
2023-03-29T08:42:28.864Z,101237.44
2023-03-29T08:45:19.275Z,101246.94
2023-03-29T08:48:14.944Z,101242.19
2023-03-29T08:50:50.416Z,101239.78
2023-03-29T08:53:44.185Z,101239.88
2023-03-29T08:56:22.762Z,101232.91
2023-03-29T08:58:52.273Z,101232.06
2023-03-29T09:01:20.800Z,101237.06
2023-03-29T09:03:50.272Z,101230.94
2023-03-29T09:06:21.997Z,101232.13
2023-03-29T09:08:50.947Z,101222.00
2023-03-29T09:11:23.236Z,101227.94
2023-03-29T09:13:49.724Z,101226.66
2023-03-29T09:16:38.332Z,101221.47
2023-03-29T09:19:28.410Z,101219.00
2023-03-29T09:22:09.341Z,101221.22
2023-03-29T09:24:47.144Z,101214.00
2023-03-29T09:27:35.179Z,101212.09
2023-03-29T09:30:18.975Z,101208.53
2023-03-29T09:32:51.725Z,101211.22
2023-03-29T09:35:32.369Z,101192.91
2023-03-29T09:38:02.105Z,101194.34
2023-03-29T09:40:38.244Z,101191.34
2023-03-29T09:43:09.240Z,101185.69
2023-03-29T09:45:39.298Z,101190.94
2023-03-29T09:48:17.049Z,101188.34
2023-03-29T09:50:47.340Z,101189.53
2023-03-29T09:53:19.319Z,101186.09
2023-03-29T09:55:49.800Z,101187.44
2023-03-29T09:58:20.158Z,101187.22
2023-03-29T10:00:48.482Z,101181.97
2023-03-29T10:03:23.839Z,101173.19
2023-03-29T10:05:54.527Z,101171.59
2023-03-29T10:08:28.834Z,101171.19
2023-03-29T10:10:59.771Z,101161.75
2023-03-29T10:13:32.940Z,101167.63
2023-03-29T10:16:09.231Z,101159.38
2023-03-29T10:18:43.190Z,101151.50
2023-03-29T10:21:17.230Z,101156.34
2023-03-29T10:23:44.299Z,101145.28
2023-03-29T10:26:36.242Z,101142.03
2023-03-29T10:29:06.212Z,101141.22
2023-03-29T10:31:33.528Z,101137.34
2023-03-29T10:34:05.065Z,101120.63
2023-03-29T10:36:32.379Z,101120.44
2023-03-29T10:39:04.369Z,101126.44
2023-03-29T10:41:34.183Z,101131.09
2023-03-29T10:44:01.527Z,101125.13
2023-03-29T10:46:40.310Z,101120.28
2023-03-29T10:49:18.132Z,101118.53
2023-03-29T10:51:46.308Z,101113.50
2023-03-29T10:54:15.833Z,101117.09
2023-03-29T10:56:56.520Z,101121.16
2023-03-29T10:59:23.100Z,101115.31
2023-03-29T11:02:14.437Z,101112.50
2023-03-29T11:04:47.636Z,101100.03
2023-03-29T11:07:28.904Z,101103.81
2023-03-29T11:10:01.523Z,101100.56
2023-03-29T11:12:39.959Z,101087.81
2023-03-29T11:15:22.213Z,101088.75
2023-03-29T11:17:54.740Z,101091.28
2023-03-29T11:20:40.030Z,101075.13
2023-03-29T11:23:42.057Z,101073.50
2023-03-29T11:26:22.693Z,101069.50
2023-03-29T11:29:28.176Z,101067.56
2023-03-29T11:32:15.162Z,101066.94
2023-03-29T11:35:09.998Z,101070.44
2023-03-29T11:38:11.875Z,101062.53
2023-03-29T11:40:53.420Z,101054.00
2023-03-29T11:43:41.438Z,101052.25
2023-03-29T11:46:21.808Z,101053.84
2023-03-29T11:48:55.602Z,101037.22
2023-03-29T11:51:34.304Z,101032.28
2023-03-29T11:54:28.584Z,101032.00
2023-03-29T11:57:02.018Z,101020.66
2023-03-29T11:59:36.404Z,101017.50
2023-03-29T12:02:35.951Z,101013.34
2023-03-29T12:05:12.050Z,101018.63
2023-03-29T12:07:49.317Z,101006.75
2023-03-29T12:10:21.582Z,101005.53
2023-03-29T12:12:55.268Z,100992.81
2023-03-29T12:15:26.186Z,100995.34
2023-03-29T12:18:22.937Z,100993.28
2023-03-29T12:20:57.620Z,100995.34
2023-03-29T12:23:24.373Z,100994.56
2023-03-29T12:26:25.494Z,100991.53
2023-03-29T12:29:26.329Z,100981.34
2023-03-29T12:32:12.370Z,100979.75
2023-03-29T12:35:06.923Z,100982.31
2023-03-29T12:37:47.018Z,100980.78
2023-03-29T12:40:18.303Z,100979.00
2023-03-29T12:42:47.429Z,100968.19
2023-03-29T12:45:51.092Z,100972.28
2023-03-29T12:48:24.171Z,100966.44
2023-03-29T12:50:54.364Z,100964.25
2023-03-29T12:53:28.278Z,100958.81
2023-03-29T12:56:01.208Z,100956.09
2023-03-29T12:58:39.999Z,100951.00
2023-03-29T13:01:23.414Z,100950.75
2023-03-29T13:04:14.970Z,100947.09
2023-03-29T13:06:47.525Z,100951.66
2023-03-29T13:09:30.758Z,100950.06
2023-03-29T13:12:04.748Z,100949.50
2023-03-29T13:14:34.434Z,100945.22
2023-03-29T13:17:15.576Z,100940.84
2023-03-29T13:19:53.409Z,100940.28
2023-03-29T13:22:41.766Z,100939.63
2023-03-29T13:25:44.647Z,100936.19
2023-03-29T13:28:46.740Z,100924.25
2023-03-29T13:31:47.554Z,100922.28
2023-03-29T13:34:37.744Z,100915.28
2023-03-29T13:37:23.112Z,100920.31
2023-03-29T13:39:55.004Z,100912.16
2023-03-29T13:45:29.763Z,100911.22
2023-03-29T13:48:25.110Z,100910.91
2023-03-29T13:50:57.477Z,100903.00
2023-03-29T13:53:31.174Z,100912.78
2023-03-29T13:55:59.421Z,100910.56
2023-03-29T13:58:35.250Z,100900.47
2023-03-29T14:01:10.805Z,100901.75
2023-03-29T14:03:46.859Z,100905.41
2023-03-29T14:06:17.752Z,100893.94
2023-03-29T14:08:45.050Z,100889.38
2023-03-29T14:11:18.888Z,100888.94
2023-03-29T14:13:47.919Z,100886.66
2023-03-29T14:16:14.660Z,100877.78
2023-03-29T14:18:42.569Z,100888.50
2023-03-29T14:21:12.411Z,100888.25
2023-03-29T14:23:42.068Z,100880.78
2023-03-29T14:26:10.585Z,100891.63
2023-03-29T14:28:43.556Z,100884.28
2023-03-29T14:31:20.374Z,100882.28
2023-03-29T14:33:58.469Z,100871.81
2023-03-29T14:36:27.157Z,100876.19
2023-03-29T14:39:01.453Z,100873.06
2023-03-29T14:41:33.595Z,100867.09
2023-03-29T14:44:01.031Z,100857.50
2023-03-29T14:46:27.747Z,100862.56
2023-03-29T14:48:55.803Z,100857.75
2023-03-29T14:51:28.583Z,100849.16
2023-03-29T14:53:56.171Z,100845.16
2023-03-29T14:56:25.480Z,100847.19
2023-03-29T14:58:56.615Z,100852.28
2023-03-29T15:01:25.990Z,100847.25
2023-03-29T15:04:01.972Z,100828.97
2023-03-29T15:06:29.996Z,100831.53
2023-03-29T15:09:05.866Z,100832.09
2023-03-29T15:11:34.495Z,100824.63
2023-03-29T15:14:01.288Z,100834.25
2023-03-29T15:16:32.822Z,100825.41
2023-03-29T15:19:01.746Z,100828.22
2023-03-29T15:21:33.925Z,100818.53
2023-03-29T15:24:03.366Z,100820.94
2023-03-29T15:26:38.343Z,100814.78
2023-03-29T15:29:13.820Z,100812.31
2023-03-29T15:31:42.180Z,100807.63
2023-03-29T15:34:11.667Z,100812.22
2023-03-29T15:36:43.303Z,100801.38
2023-03-29T15:39:15.310Z,100804.63
2023-03-29T15:41:42.775Z,100809.09
2023-03-29T15:44:10.906Z,100802.84
2023-03-29T15:46:37.702Z,100801.69
2023-03-29T15:49:05.089Z,100799.28
2023-03-29T15:51:31.964Z,100795.16
2023-03-29T15:53:58.516Z,100803.63
2023-03-29T15:56:26.665Z,100801.88
2023-03-29T15:58:53.489Z,100803.47
2023-03-29T16:01:36.697Z,100803.69
2023-03-29T16:04:14.988Z,100798.06
2023-03-29T16:06:46.950Z,100806.13
2023-03-29T16:09:14.371Z,100802.09
2023-03-29T16:11:43.145Z,100811.00
2023-03-29T16:14:21.128Z,100805.63
2023-03-29T16:16:48.008Z,100813.06
2023-03-29T16:19:18.391Z,100814.09
2023-03-29T16:21:45.503Z,100817.75
2023-03-29T16:24:24.204Z,100811.94
2023-03-29T16:26:54.006Z,100806.13
2023-03-29T16:29:22.636Z,100809.13
2023-03-29T16:31:50.237Z,100805.72
2023-03-29T16:34:18.876Z,100806.34
2023-03-29T16:36:47.537Z,100815.97
2023-03-29T16:39:14.645Z,100822.63
2023-03-29T16:41:42.213Z,100823.59
2023-03-29T16:44:15.880Z,100817.78
2023-03-29T16:46:42.792Z,100820.59
2023-03-29T16:49:18.346Z,100820.38
2023-03-29T16:51:48.392Z,100817.75
2023-03-29T16:54:17.354Z,100826.59
2023-03-29T16:56:44.104Z,100828.78
2023-03-29T16:59:11.948Z,100817.94
2023-03-29T17:01:40.773Z,100805.31
2023-03-29T17:04:08.282Z,100805.72
2023-03-29T17:06:38.333Z,100794.84
2023-03-29T17:09:06.231Z,100797.84
2023-03-29T17:11:33.218Z,100790.41
2023-03-29T17:14:00.158Z,100796.19
2023-03-29T17:16:29.037Z,100797.75
2023-03-29T17:18:58.488Z,100799.50
2023-03-29T17:21:25.535Z,100809.03
2023-03-29T17:23:52.079Z,100806.72
2023-03-29T17:26:18.640Z,100804.03
2023-03-29T17:28:45.493Z,100802.53
2023-03-29T17:31:12.153Z,100803.44
2023-03-29T17:33:38.770Z,100796.09
2023-03-29T17:36:06.980Z,100798.97
2023-03-29T17:38:34.957Z,100812.84
2023-03-29T17:41:02.807Z,100817.16
2023-03-29T17:43:32.029Z,100815.13
2023-03-29T17:45:58.680Z,100814.69
2023-03-29T17:48:25.741Z,100811.03
2023-03-29T17:50:55.251Z,100811.16
2023-03-29T17:53:22.116Z,100804.09
2023-03-29T17:55:49.222Z,100815.22
2023-03-29T17:58:16.571Z,100803.75
2023-03-29T18:00:43.342Z,100810.47
2023-03-29T18:03:10.210Z,100811.47
2023-03-29T18:05:37.030Z,100800.47
2023-03-29T18:08:04.014Z,100810.84
2023-03-29T18:10:30.920Z,100809.06
2023-03-29T18:12:57.573Z,100806.47
2023-03-29T18:15:24.162Z,100802.06
2023-03-29T18:17:53.116Z,100799.47
2023-03-29T18:20:20.688Z,100811.28
2023-03-29T18:22:47.338Z,100817.13
2023-03-29T18:25:14.670Z,100811.75
2023-03-29T18:27:41.394Z,100820.16
2023-03-29T18:30:09.057Z,100818.34
2023-03-29T18:32:36.284Z,100813.53
2023-03-29T18:35:03.515Z,100816.75
2023-03-29T18:37:30.092Z,100822.91
2023-03-29T18:40:00.306Z,100819.72
2023-03-29T18:42:30.997Z,100821.31
2023-03-29T18:44:57.823Z,100821.69
2023-03-29T18:47:25.531Z,100820.25
2023-03-29T18:49:52.359Z,100817.84
2023-03-29T18:52:19.179Z,100817.03
2023-03-29T18:54:45.907Z,100814.41
2023-03-29T18:57:12.650Z,100812.00
2023-03-29T18:59:39.524Z,100811.03
2023-03-29T19:02:06.227Z,100807.00
2023-03-29T19:04:32.959Z,100811.56
2023-03-29T19:07:01.396Z,100814.16
2023-03-29T19:09:28.203Z,100812.00
2023-03-29T19:11:54.861Z,100807.81
2023-03-29T19:14:24.211Z,100809.41
2023-03-29T19:16:53.553Z,100807.00
2023-03-29T19:19:22.515Z,100807.38
2023-03-29T19:21:49.626Z,100802.81
2023-03-29T19:24:16.715Z,100799.84
2023-03-29T19:26:44.445Z,100793.50
2023-03-29T19:29:11.112Z,100784.69
2023-03-29T19:31:38.005Z,100798.69
2023-03-29T19:34:07.019Z,100797.50
2023-03-29T19:36:33.797Z,100792.31
2023-03-29T19:39:00.910Z,100791.50
2023-03-29T19:41:28.325Z,100800.72
2023-03-29T19:43:55.145Z,100791.34
2023-03-29T19:46:21.877Z,100799.72
2023-03-29T19:48:48.549Z,100797.13
2023-03-29T19:51:15.373Z,100793.75
2023-03-29T19:53:42.014Z,100789.00
2023-03-29T19:56:10.909Z,100792.56
2023-03-29T19:58:37.728Z,100795.16
2023-03-29T20:01:04.601Z,100798.75
2023-03-29T20:03:34.044Z,100794.53
2023-03-29T20:06:01.499Z,100795.53
2023-03-29T20:08:28.481Z,100792.94
2023-03-29T20:11:05.041Z,100792.94
2023-03-29T20:13:38.687Z,100793.56
2023-03-29T20:16:11.737Z,100789.16
2023-03-29T20:18:39.494Z,100787.81
2023-03-29T20:21:07.689Z,100781.81
2023-03-29T20:23:35.384Z,100784.25
2023-03-29T20:26:02.328Z,100775.63
2023-03-29T20:28:29.286Z,100777.22
2023-03-29T20:30:55.841Z,100776.06
2023-03-29T20:33:22.945Z,100780.06
2023-03-29T20:35:49.760Z,100781.91
2023-03-29T20:38:16.373Z,100774.69
2023-03-29T20:40:43.172Z,100770.31
2023-03-29T20:43:13.449Z,100760.75
2023-03-29T20:45:52.554Z,100769.16
2023-03-29T20:48:31.444Z,100757.94
2023-03-29T20:50:58.298Z,100758.19
2023-03-29T20:53:25.848Z,100760.16
2023-03-29T20:55:52.644Z,100767.00
2023-03-29T20:58:19.302Z,100768.78
2023-03-29T21:00:48.355Z,100767.34
2023-03-29T21:03:15.048Z,100763.16
2023-03-29T21:05:41.883Z,100752.75
2023-03-29T21:08:08.521Z,100756.16
2023-03-29T21:10:36.588Z,100754.91
2023-03-29T21:13:06.086Z,100750.88
2023-03-29T21:15:33.207Z,100757.06
2023-03-29T21:17:59.859Z,100743.28
2023-03-29T21:20:27.712Z,100746.25
2023-03-29T21:22:54.429Z,100744.03
2023-03-29T21:25:21.643Z,100740.44
2023-03-29T21:27:49.060Z,100742.06
2023-03-29T21:30:15.723Z,100737.06
2023-03-29T21:32:42.330Z,100742.06
2023-03-29T21:35:09.701Z,100738.66
2023-03-29T21:37:36.337Z,100728.88
2023-03-29T21:40:07.149Z,100728.06
2023-03-29T21:42:34.511Z,100725.66
2023-03-29T21:45:01.566Z,100723.25
2023-03-29T21:47:28.823Z,100723.06
2023-03-29T21:49:55.408Z,100724.06
2023-03-29T21:52:22.364Z,100718.88
2023-03-29T21:54:48.978Z,100720.66
2023-03-29T21:57:15.749Z,100714.28
2023-03-29T21:59:42.454Z,100710.47
2023-03-29T22:02:09.126Z,100705.66
2023-03-29T22:04:37.403Z,100708.84
2023-03-29T22:07:05.839Z,100703.03
2023-03-29T22:09:35.210Z,100710.84
2023-03-29T22:12:03.162Z,100694.44
2023-03-29T22:14:35.095Z,100695.41
2023-03-29T22:17:05.828Z,100686.66
2023-03-29T22:19:33.990Z,100688.44
2023-03-29T22:22:01.468Z,100687.81
2023-03-29T22:24:29.121Z,100676.81
2023-03-29T22:26:56.213Z,100686.22
2023-03-29T22:29:22.938Z,100683.25
2023-03-29T22:31:49.653Z,100673.66
2023-03-29T22:34:16.369Z,100674.28
2023-03-29T22:36:42.935Z,100667.03
2023-03-29T22:39:10.910Z,100669.19
2023-03-29T22:41:37.644Z,100667.22
2023-03-29T22:44:04.421Z,100671.63
2023-03-29T22:46:31.244Z,100667.59
2023-03-29T22:48:57.936Z,100664.44
2023-03-29T22:51:24.559Z,100669.81
2023-03-29T22:53:51.506Z,100669.41
2023-03-29T22:56:18.102Z,100670.78
2023-03-29T22:58:44.834Z,100667.19
2023-03-29T23:01:11.980Z,100660.53
2023-03-29T23:03:38.656Z,100657.34
2023-03-29T23:06:05.990Z,100657.34
2023-03-29T23:08:34.294Z,100655.19
2023-03-29T23:11:01.906Z,100650.00
2023-03-29T23:13:29.421Z,100650.00
2023-03-29T23:15:59.052Z,100646.78
2023-03-29T23:18:27.724Z,100642.75
2023-03-29T23:20:56.850Z,100639.19
2023-03-29T23:23:25.014Z,100646.34
2023-03-29T23:25:53.106Z,100641.59
2023-03-29T23:28:23.488Z,100638.75
2023-03-29T23:30:58.394Z,100645.91
2023-03-29T23:33:26.131Z,100646.53
2023-03-29T23:35:53.616Z,100645.72
2023-03-29T23:38:20.939Z,100643.94
2023-03-29T23:41:02.108Z,100642.94
2023-03-29T23:43:32.667Z,100642.94
2023-03-29T23:46:01.663Z,100640.97
2023-03-29T23:48:28.604Z,100640.97
2023-03-29T23:50:57.236Z,100631.56
2023-03-29T23:53:25.503Z,100635.16
2023-03-29T23:55:52.080Z,100633.75
2023-03-29T23:58:18.678Z,100632.13
